createdAt,value
2018-05-16T00:01:13.655Z,14.41
2018-05-16T00:03:41.184Z,14.45
2018-05-16T00:06:08.709Z,14.48
2018-05-16T00:08:36.236Z,14.44
2018-05-16T00:11:03.761Z,14.45
2018-05-16T00:13:31.306Z,14.45
2018-05-16T00:15:58.836Z,14.38
2018-05-16T00:18:26.368Z,14.42
2018-05-16T00:20:53.900Z,14.42
2018-05-16T00:23:21.424Z,14.43
2018-05-16T00:25:48.949Z,14.42
2018-05-16T00:28:16.480Z,14.42
2018-05-16T00:30:44.009Z,14.40
2018-05-16T00:33:11.532Z,14.45
2018-05-16T00:35:39.057Z,14.47
2018-05-16T00:38:06.585Z,14.50
2018-05-16T00:40:34.132Z,14.53
2018-05-16T00:43:01.661Z,14.51
2018-05-16T00:45:29.374Z,14.43
2018-05-16T00:47:56.896Z,14.34
2018-05-16T00:50:24.440Z,14.38
2018-05-16T00:52:51.975Z,14.41
2018-05-16T00:55:19.500Z,14.39
2018-05-16T00:57:47.016Z,14.38
2018-05-16T01:00:14.549Z,14.33
2018-05-16T01:02:42.076Z,14.33
2018-05-16T01:05:09.608Z,14.42
2018-05-16T01:07:37.132Z,14.39
2018-05-16T01:10:04.664Z,14.42
2018-05-16T01:12:32.192Z,14.42
2018-05-16T01:14:59.731Z,14.48
2018-05-16T01:17:27.268Z,14.49
2018-05-16T01:19:54.853Z,14.40
2018-05-16T01:22:22.361Z,14.46
2018-05-16T01:24:49.880Z,14.47
2018-05-16T01:27:17.404Z,14.45
2018-05-16T01:29:44.936Z,14.45
2018-05-16T01:32:12.455Z,14.43
2018-05-16T01:34:39.991Z,14.40
2018-05-16T01:37:07.508Z,14.39
2018-05-16T01:39:35.040Z,14.41
2018-05-16T01:42:02.592Z,14.39
2018-05-16T01:44:30.107Z,14.37
2018-05-16T01:46:57.631Z,14.37
2018-05-16T01:49:25.163Z,14.40
2018-05-16T01:51:52.693Z,14.37
2018-05-16T01:54:20.223Z,14.31
2018-05-16T01:56:47.747Z,14.25
2018-05-16T01:59:15.276Z,14.24
2018-05-16T02:01:42.815Z,14.16
2018-05-16T02:04:10.355Z,14.21
2018-05-16T02:06:37.892Z,14.19
2018-05-16T02:09:06.330Z,14.24
2018-05-16T02:11:33.883Z,14.26
2018-05-16T02:14:01.420Z,14.27
2018-05-16T02:16:28.950Z,14.28
2018-05-16T02:18:56.476Z,14.23
2018-05-16T02:21:24.002Z,14.20
2018-05-16T02:23:51.537Z,14.15
2018-05-16T02:26:19.082Z,14.10
2018-05-16T02:28:46.609Z,14.11
2018-05-16T02:31:14.135Z,14.13
2018-05-16T02:33:41.660Z,14.11
2018-05-16T02:36:09.183Z,14.12
2018-05-16T02:38:36.731Z,14.16
2018-05-16T02:41:04.310Z,14.15
2018-05-16T02:43:31.831Z,14.19
2018-05-16T02:45:59.355Z,14.19
2018-05-16T02:48:26.901Z,14.13
2018-05-16T02:50:54.473Z,14.12
2018-05-16T02:53:22.010Z,14.10
2018-05-16T02:55:49.548Z,14.08
2018-05-16T02:58:17.094Z,14.04
2018-05-16T03:00:44.612Z,14.06
2018-05-16T03:03:12.140Z,14.06
2018-05-16T03:05:39.676Z,14.06
2018-05-16T03:08:07.205Z,14.06
2018-05-16T03:10:34.745Z,14.02
2018-05-16T03:13:02.276Z,14.02
2018-05-16T03:15:29.816Z,14.06
2018-05-16T03:17:57.336Z,14.03
2018-05-16T03:20:24.865Z,14.03
2018-05-16T03:22:52.409Z,14.04
2018-05-16T03:25:19.945Z,14.01
2018-05-16T03:27:47.476Z,14.01
2018-05-16T03:30:15.008Z,13.99
2018-05-16T03:32:42.554Z,13.93
2018-05-16T03:35:10.090Z,13.97
2018-05-16T03:37:37.615Z,13.94
2018-05-16T03:40:05.160Z,13.95
2018-05-16T03:42:32.694Z,13.96
2018-05-16T03:45:00.221Z,13.97
2018-05-16T03:47:27.747Z,13.95
2018-05-16T03:49:55.277Z,14.00
2018-05-16T03:52:22.805Z,14.08
2018-05-16T03:54:50.332Z,14.11
2018-05-16T03:57:29.543Z,14.10
2018-05-16T04:00:08.889Z,14.12
2018-05-16T04:05:40.080Z,14.22
2018-05-16T04:08:07.614Z,14.20
2018-05-16T04:10:35.144Z,14.23
2018-05-16T04:13:02.673Z,14.25
2018-05-16T04:15:30.207Z,14.28
2018-05-16T04:17:57.756Z,14.29
2018-05-16T04:20:25.287Z,14.26
2018-05-16T04:22:52.809Z,14.30
2018-05-16T04:25:20.336Z,14.31
2018-05-16T04:27:47.902Z,14.39
2018-05-16T04:30:15.426Z,14.40
2018-05-16T04:32:43.025Z,14.47
2018-05-16T04:35:10.505Z,14.48
2018-05-16T04:37:38.036Z,14.50
2018-05-16T04:40:05.558Z,14.55
2018-05-16T04:42:33.084Z,14.61
2018-05-16T04:45:00.608Z,14.65
2018-05-16T04:47:28.139Z,14.70
2018-05-16T04:49:55.677Z,14.67
2018-05-16T04:52:23.239Z,14.69
2018-05-16T04:54:50.763Z,14.78
2018-05-16T04:57:18.308Z,14.79
2018-05-16T04:59:45.844Z,14.81
2018-05-16T05:02:13.389Z,14.85
2018-05-16T05:04:40.928Z,14.87
2018-05-16T05:07:08.452Z,14.87
2018-05-16T05:09:36.006Z,14.91
2018-05-16T05:12:03.529Z,14.90
2018-05-16T05:14:31.056Z,14.89
2018-05-16T05:16:58.588Z,14.94
2018-05-16T05:19:26.113Z,14.97
2018-05-16T05:21:53.640Z,15.08
2018-05-16T05:24:21.164Z,15.11
2018-05-16T05:26:48.714Z,15.19
2018-05-16T05:29:16.244Z,15.20
2018-05-16T05:31:43.774Z,15.31
2018-05-16T05:34:11.297Z,15.42
2018-05-16T05:36:38.825Z,15.45
2018-05-16T05:39:06.352Z,15.49
2018-05-16T05:41:33.881Z,15.51
2018-05-16T05:44:01.400Z,15.57
2018-05-16T05:46:28.934Z,15.66
2018-05-16T05:48:56.458Z,15.77
2018-05-16T05:51:23.992Z,15.83
2018-05-16T05:53:51.524Z,15.80
2018-05-16T05:56:19.064Z,15.82
2018-05-16T05:58:46.595Z,15.93
2018-05-16T06:01:14.115Z,15.97
2018-05-16T06:03:41.656Z,16.09
2018-05-16T06:06:09.263Z,16.28
2018-05-16T06:08:36.728Z,16.58
2018-05-16T06:11:04.254Z,16.71
2018-05-16T06:13:31.780Z,16.91
2018-05-16T06:15:59.299Z,17.13
2018-05-16T06:18:26.826Z,17.23
2018-05-16T06:20:54.372Z,17.44
2018-05-16T06:23:21.901Z,17.77
2018-05-16T06:25:49.435Z,18.17
2018-05-16T06:28:16.968Z,18.34
2018-05-16T06:30:44.492Z,18.36
2018-05-16T06:33:12.021Z,18.64
2018-05-16T06:35:39.547Z,18.69
2018-05-16T06:38:07.072Z,18.76
2018-05-16T06:40:34.610Z,18.72
2018-05-16T06:43:02.145Z,18.77
2018-05-16T06:45:31.815Z,18.71
2018-05-16T06:47:59.341Z,18.63
2018-05-16T06:50:26.891Z,18.64
2018-05-16T06:52:54.426Z,18.66
2018-05-16T06:55:22.015Z,18.78
2018-05-16T06:57:49.573Z,18.74
2018-05-16T07:00:17.108Z,18.82
2018-05-16T07:02:44.762Z,19.00
2018-05-16T07:05:12.417Z,19.06
2018-05-16T07:07:39.943Z,19.17
2018-05-16T07:10:07.537Z,19.28
2018-05-16T07:12:35.069Z,19.67
2018-05-16T07:15:02.613Z,20.10
2018-05-16T07:17:30.212Z,20.31
2018-05-16T07:19:57.744Z,20.50
2018-05-16T07:22:25.338Z,20.67
2018-05-16T07:24:52.870Z,21.04
2018-05-16T07:27:20.397Z,21.65
2018-05-16T07:29:47.936Z,22.05
2018-05-16T07:32:15.580Z,21.98
2018-05-16T07:34:43.109Z,22.29
2018-05-16T07:37:10.700Z,22.71
2018-05-16T07:39:38.225Z,23.03
2018-05-16T07:42:05.883Z,23.13
2018-05-16T07:44:33.479Z,23.37
2018-05-16T07:47:01.097Z,23.88
2018-05-16T07:49:28.618Z,24.13
2018-05-16T07:51:56.265Z,24.27
2018-05-16T07:54:23.793Z,24.76
2018-05-16T07:56:51.324Z,25.04
2018-05-16T07:59:18.876Z,25.11
2018-05-16T08:01:46.403Z,25.14
2018-05-16T08:04:13.940Z,25.35
2018-05-16T08:06:41.487Z,25.40
2018-05-16T08:09:09.018Z,25.28
2018-05-16T08:11:36.573Z,24.65
2018-05-16T08:14:04.112Z,24.97
2018-05-16T08:16:31.632Z,25.26
2018-05-16T08:18:59.216Z,25.08
2018-05-16T08:21:26.881Z,24.99
2018-05-16T08:23:54.414Z,24.87
2018-05-16T08:26:21.941Z,25.09
2018-05-16T08:28:49.549Z,24.72
2018-05-16T08:31:17.170Z,24.57
2018-05-16T08:33:44.680Z,24.23
2018-05-16T08:36:12.227Z,24.91
2018-05-16T08:38:39.801Z,24.09
2018-05-16T08:41:07.395Z,23.97
2018-05-16T08:43:35.027Z,24.89
2018-05-16T08:46:02.599Z,25.02
2018-05-16T08:48:30.129Z,24.64
2018-05-16T08:50:57.660Z,24.78
2018-05-16T08:53:25.206Z,25.04
2018-05-16T08:55:52.824Z,26.08
2018-05-16T08:58:20.349Z,27.53
2018-05-16T09:00:47.944Z,28.41
2018-05-16T09:03:15.475Z,29.40
2018-05-16T09:05:42.992Z,29.37
2018-05-16T09:08:10.675Z,29.39
2018-05-16T09:10:38.215Z,29.45
2018-05-16T09:13:05.749Z,29.03
2018-05-16T09:15:33.268Z,28.44
2018-05-16T09:18:00.796Z,28.61
2018-05-16T09:20:28.424Z,28.49
2018-05-16T09:22:55.984Z,28.76
2018-05-16T09:25:23.508Z,28.27
2018-05-16T09:27:51.062Z,29.32
2018-05-16T09:30:18.592Z,30.28
2018-05-16T09:32:46.108Z,30.91
2018-05-16T09:35:13.633Z,31.03
2018-05-16T09:37:41.160Z,31.58
2018-05-16T09:40:08.689Z,30.83
2018-05-16T09:42:36.223Z,28.01
2018-05-16T09:45:03.758Z,28.29
2018-05-16T09:47:31.276Z,28.67
2018-05-16T09:49:58.795Z,28.01
2018-05-16T09:52:26.316Z,28.01
2018-05-16T09:54:53.849Z,27.99
2018-05-16T09:57:21.372Z,27.96
2018-05-16T09:59:49.531Z,28.03
2018-05-16T10:02:17.713Z,26.80
2018-05-16T10:04:45.239Z,27.01
2018-05-16T10:07:12.780Z,27.01
2018-05-16T10:09:40.360Z,26.82
2018-05-16T10:12:07.901Z,26.97
2018-05-16T10:14:35.432Z,26.20
2018-05-16T10:17:02.989Z,26.96
2018-05-16T10:19:30.513Z,27.26
2018-05-16T10:21:58.044Z,26.52
2018-05-16T10:24:25.592Z,26.29
2018-05-16T10:26:53.158Z,26.21
2018-05-16T10:29:20.684Z,26.25
2018-05-16T10:31:48.211Z,25.97
2018-05-16T10:34:15.810Z,26.16
2018-05-16T10:36:43.369Z,26.88
2018-05-16T10:39:10.902Z,27.07
2018-05-16T10:41:38.456Z,27.35
2018-05-16T10:44:05.984Z,27.00
2018-05-16T10:46:33.507Z,27.17
2018-05-16T10:49:01.032Z,26.97
2018-05-16T10:51:28.572Z,26.53
2018-05-16T10:53:56.112Z,25.88
2018-05-16T10:56:23.641Z,26.02
2018-05-16T10:58:51.168Z,26.06
2018-05-16T11:01:18.693Z,25.90
2018-05-16T11:03:46.219Z,25.83
2018-05-16T11:06:13.749Z,25.78
2018-05-16T11:08:41.272Z,25.45
2018-05-16T11:11:08.798Z,25.44
2018-05-16T11:13:36.326Z,24.98
2018-05-16T11:16:03.852Z,24.95
2018-05-16T11:18:31.409Z,24.97
2018-05-16T11:20:58.936Z,25.14
2018-05-16T11:23:26.459Z,24.86
2018-05-16T11:25:53.988Z,24.78
2018-05-16T11:28:21.513Z,24.91
2018-05-16T11:30:49.103Z,24.78
2018-05-16T11:33:16.652Z,24.43
2018-05-16T11:35:44.178Z,24.58
2018-05-16T11:38:11.711Z,24.51
2018-05-16T11:40:39.247Z,24.41
2018-05-16T11:43:06.789Z,24.90
2018-05-16T11:45:34.329Z,24.47
2018-05-16T11:48:01.887Z,24.45
2018-05-16T11:50:29.416Z,24.53
2018-05-16T11:52:56.952Z,24.39
2018-05-16T11:55:24.498Z,24.26
2018-05-16T11:57:52.031Z,24.47
2018-05-16T12:00:19.548Z,24.57
2018-05-16T12:02:47.266Z,24.35
2018-05-16T12:05:14.741Z,24.35
2018-05-16T12:07:42.331Z,24.41
2018-05-16T12:10:09.863Z,24.65
2018-05-16T12:12:37.419Z,24.62
2018-05-16T12:15:04.956Z,24.60
2018-05-16T12:17:32.508Z,24.47
2018-05-16T12:20:00.086Z,24.45
2018-05-16T12:22:27.625Z,24.28
2018-05-16T12:24:55.148Z,24.29
2018-05-16T12:27:22.788Z,24.34
2018-05-16T12:29:50.340Z,24.21
2018-05-16T12:32:17.866Z,24.28
2018-05-16T12:34:45.443Z,24.43
2018-05-16T12:37:12.987Z,24.38
2018-05-16T12:39:40.523Z,24.45
2018-05-16T12:42:08.107Z,24.35
2018-05-16T12:44:35.652Z,24.30
2018-05-16T12:47:03.270Z,24.17
2018-05-16T12:49:30.798Z,24.18
2018-05-16T12:51:58.337Z,24.09
2018-05-16T12:54:25.870Z,24.23
2018-05-16T12:56:53.396Z,24.07
2018-05-16T12:59:20.924Z,23.81
2018-05-16T13:01:48.444Z,23.73
2018-05-16T13:04:15.975Z,23.73
2018-05-16T13:06:43.499Z,23.74
2018-05-16T13:09:11.020Z,23.62
2018-05-16T13:11:38.549Z,23.56
2018-05-16T13:14:06.077Z,23.71
2018-05-16T13:16:33.599Z,23.75
2018-05-16T13:19:01.139Z,23.70
2018-05-16T13:21:28.729Z,23.67
2018-05-16T13:23:56.209Z,23.67
2018-05-16T13:26:23.760Z,23.72
2018-05-16T13:28:51.677Z,23.67
2018-05-16T13:31:19.233Z,23.64
2018-05-16T13:33:46.797Z,23.59
2018-05-16T13:36:14.369Z,23.61
2018-05-16T13:38:42.020Z,23.58
2018-05-16T13:41:09.536Z,23.60
2018-05-16T13:43:37.065Z,23.60
2018-05-16T13:46:04.700Z,23.62
2018-05-16T13:48:32.216Z,23.48
2018-05-16T13:50:59.820Z,23.46
2018-05-16T13:53:27.380Z,23.40
2018-05-16T13:55:54.909Z,23.28
2018-05-16T13:58:22.429Z,23.36
2018-05-16T14:00:49.957Z,23.42
2018-05-16T14:03:17.513Z,23.47
2018-05-16T14:05:45.070Z,23.48
2018-05-16T14:08:12.613Z,23.51
2018-05-16T14:10:40.128Z,23.53
2018-05-16T14:13:07.759Z,23.57
2018-05-16T14:15:35.312Z,23.60
2018-05-16T14:18:02.827Z,23.74
2018-05-16T14:20:30.357Z,23.80
2018-05-16T14:22:57.896Z,23.58
2018-05-16T14:25:25.419Z,23.59
2018-05-16T14:27:52.948Z,23.49
2018-05-16T14:30:20.478Z,23.30
2018-05-16T14:32:48.034Z,23.25
2018-05-16T14:35:15.556Z,23.17
2018-05-16T14:37:43.089Z,23.16
2018-05-16T14:40:10.652Z,23.08
2018-05-16T14:42:38.250Z,23.12
2018-05-16T14:45:05.745Z,23.16
2018-05-16T14:47:33.276Z,23.05
2018-05-16T14:50:00.808Z,23.02
2018-05-16T14:52:28.343Z,22.98
2018-05-16T14:54:55.972Z,22.98
2018-05-16T14:57:23.513Z,22.86
2018-05-16T14:59:51.024Z,22.78
2018-05-16T15:02:18.568Z,22.79
2018-05-16T15:04:46.093Z,22.80
2018-05-16T15:07:13.629Z,22.82
2018-05-16T15:09:41.156Z,22.53
2018-05-16T15:12:08.686Z,22.50
2018-05-16T15:14:36.215Z,22.38
2018-05-16T15:17:03.777Z,22.48
2018-05-16T15:19:31.306Z,22.48
2018-05-16T15:21:58.880Z,22.37
2018-05-16T15:24:26.412Z,22.35
2018-05-16T15:26:53.968Z,22.20
2018-05-16T15:29:21.504Z,22.10
2018-05-16T15:31:49.035Z,22.13
2018-05-16T15:34:16.560Z,22.10
2018-05-16T15:36:44.082Z,22.01
2018-05-16T15:39:11.611Z,22.02
2018-05-16T15:41:39.143Z,21.94
2018-05-16T15:44:06.761Z,21.97
2018-05-16T15:46:34.279Z,22.03
2018-05-16T15:49:01.819Z,22.05
2018-05-16T15:51:29.339Z,22.04
2018-05-16T15:53:56.862Z,21.97
2018-05-16T15:56:24.390Z,21.80
2018-05-16T15:58:51.917Z,21.78
2018-05-16T16:01:19.444Z,21.76
2018-05-16T16:03:46.968Z,21.68
2018-05-16T16:06:14.503Z,21.62
2018-05-16T16:08:42.019Z,21.70
2018-05-16T16:11:09.557Z,21.68
2018-05-16T16:13:37.084Z,21.67
2018-05-16T16:16:04.649Z,21.66
2018-05-16T16:18:32.173Z,21.68
2018-05-16T16:20:59.710Z,21.67
2018-05-16T16:23:27.256Z,21.64
2018-05-16T16:25:54.796Z,21.59
2018-05-16T16:28:22.532Z,21.63
2018-05-16T16:30:50.106Z,21.54
2018-05-16T16:33:17.655Z,21.51
2018-05-16T16:35:45.214Z,21.48
2018-05-16T16:38:12.771Z,21.52
2018-05-16T16:40:40.323Z,21.54
2018-05-16T16:43:07.863Z,21.61
2018-05-16T16:45:35.401Z,21.62
2018-05-16T16:48:02.961Z,21.72
2018-05-16T16:50:30.521Z,21.71
2018-05-16T16:52:58.093Z,21.71
2018-05-16T16:55:25.645Z,21.70
2018-05-16T16:57:53.193Z,21.68
2018-05-16T17:00:20.761Z,21.69
2018-05-16T17:02:48.304Z,21.71
2018-05-16T17:05:15.837Z,21.77
2018-05-16T17:07:43.372Z,21.74
2018-05-16T17:10:11.073Z,21.66
2018-05-16T17:12:38.623Z,21.66
2018-05-16T17:15:06.183Z,21.72
2018-05-16T17:17:33.738Z,21.67
2018-05-16T17:20:01.291Z,21.65
2018-05-16T17:22:28.860Z,21.62
2018-05-16T17:24:56.500Z,21.61
2018-05-16T17:27:24.001Z,21.59
2018-05-16T17:29:51.554Z,21.55
2018-05-16T17:32:19.075Z,21.50
2018-05-16T17:34:46.588Z,21.47
2018-05-16T17:37:14.117Z,21.41
2018-05-16T17:39:41.676Z,21.40
2018-05-16T17:42:09.238Z,21.41
2018-05-16T17:44:36.774Z,21.38
2018-05-16T17:47:04.329Z,21.37
2018-05-16T17:49:31.850Z,21.39
2018-05-16T17:51:59.372Z,21.34
2018-05-16T17:54:26.913Z,21.34
2018-05-16T17:56:54.462Z,21.26
2018-05-16T17:59:21.977Z,21.25
2018-05-16T18:01:49.510Z,21.23
2018-05-16T18:04:17.069Z,21.18
2018-05-16T18:06:44.594Z,21.17
2018-05-16T18:09:12.112Z,21.12
2018-05-16T18:11:39.632Z,21.21
2018-05-16T18:14:19.089Z,21.12
2018-05-16T18:16:58.718Z,21.06
2018-05-16T18:19:26.285Z,21.08
2018-05-16T18:21:53.845Z,21.06
2018-05-16T18:24:21.365Z,21.05
2018-05-16T18:26:48.968Z,21.06
2018-05-16T18:29:16.502Z,21.03
2018-05-16T18:31:44.071Z,21.04
2018-05-16T18:34:11.584Z,21.03
2018-05-16T18:36:39.139Z,21.03
2018-05-16T18:39:06.769Z,21.00
2018-05-16T18:41:34.291Z,20.99
2018-05-16T18:44:01.829Z,20.97
2018-05-16T18:46:29.377Z,20.97
2018-05-16T18:48:57.007Z,20.99
2018-05-16T18:51:24.574Z,20.96
2018-05-16T18:53:52.129Z,20.90
2018-05-16T18:56:19.687Z,20.92
2018-05-16T18:58:47.217Z,20.90
2018-05-16T19:01:14.745Z,20.89
2018-05-16T19:03:42.291Z,20.84
2018-05-16T19:06:09.912Z,20.78
2018-05-16T19:08:37.528Z,20.76
2018-05-16T19:11:05.079Z,20.76
2018-05-16T19:13:32.707Z,20.73
2018-05-16T19:16:00.271Z,20.72
2018-05-16T19:18:27.799Z,20.67
2018-05-16T19:20:55.325Z,20.64
2018-05-16T19:23:22.861Z,20.65
2018-05-16T19:25:50.407Z,20.62
2018-05-16T19:28:17.936Z,20.59
2018-05-16T19:30:45.458Z,20.59
2018-05-16T19:33:12.983Z,20.56
2018-05-16T19:35:40.513Z,20.56
2018-05-16T19:38:08.104Z,20.47
2018-05-16T19:40:35.631Z,20.47
2018-05-16T19:43:03.269Z,20.45
2018-05-16T19:45:30.807Z,20.44
2018-05-16T21:09:55.360Z,19.23
2018-05-16T21:12:22.994Z,19.22
2018-05-16T21:14:50.534Z,19.18
2018-05-16T21:17:18.060Z,19.20
2018-05-16T21:19:45.675Z,19.14
2018-05-16T21:22:13.208Z,19.14
2018-05-16T21:24:40.735Z,19.15
2018-05-16T21:27:08.262Z,19.12
2018-05-16T21:29:35.818Z,19.12
2018-05-16T21:32:03.345Z,19.10
2018-05-16T21:34:30.937Z,19.10
2018-05-16T21:36:58.506Z,19.09
2018-05-16T21:39:26.027Z,19.05
2018-05-16T21:41:53.564Z,19.01
2018-05-16T21:44:21.106Z,18.96
2018-05-16T21:46:48.672Z,18.95
2018-05-16T21:49:16.297Z,18.93
2018-05-16T21:51:43.858Z,18.90
2018-05-16T21:54:11.436Z,18.90
2018-05-16T21:56:39.025Z,18.84
2018-05-16T21:59:06.524Z,18.78
2018-05-16T22:01:34.053Z,18.76
2018-05-16T22:04:01.581Z,18.76
2018-05-16T22:06:29.115Z,18.76
2018-05-16T22:08:56.649Z,18.71
2018-05-16T22:11:24.181Z,18.73
2018-05-16T22:13:51.732Z,18.71
2018-05-16T22:16:19.253Z,18.70
2018-05-16T22:18:46.780Z,18.63
2018-05-16T22:21:14.381Z,18.62
2018-05-16T22:23:41.880Z,18.60
2018-05-16T22:26:09.411Z,18.58
2018-05-16T22:28:36.947Z,18.55
2018-05-16T22:31:10.073Z,18.53
2018-05-16T22:33:43.185Z,18.43
2018-05-16T22:36:16.359Z,18.43
2018-05-16T22:38:49.324Z,18.42
2018-05-16T22:41:22.533Z,18.40
2018-05-16T22:43:53.001Z,18.38
2018-05-16T22:46:20.527Z,18.37
2018-05-16T22:48:48.054Z,18.31
2018-05-16T22:51:15.580Z,18.26
2018-05-16T22:53:43.105Z,18.29
2018-05-16T22:56:10.645Z,18.26
2018-05-16T22:58:38.169Z,18.29
2018-05-16T23:01:05.711Z,18.23
2018-05-16T23:03:33.242Z,18.22
2018-05-16T23:06:00.781Z,18.24
2018-05-16T23:08:28.324Z,18.23
2018-05-16T23:10:55.850Z,18.21
2018-05-16T23:13:23.379Z,18.17
2018-05-16T23:15:50.921Z,18.13
2018-05-16T23:18:18.462Z,18.11
2018-05-16T23:20:46.003Z,18.09
2018-05-16T23:23:13.545Z,18.04
2018-05-16T23:25:41.075Z,17.97
2018-05-16T23:28:08.747Z,17.93
2018-05-16T23:30:36.293Z,17.90
2018-05-16T23:33:03.822Z,17.83
2018-05-16T23:35:31.350Z,17.76
2018-05-16T23:37:58.873Z,17.74
2018-05-16T23:40:26.409Z,17.63
2018-05-16T23:42:53.997Z,17.63
2018-05-16T23:45:21.520Z,17.61
2018-05-16T23:47:49.045Z,17.58
2018-05-16T23:50:16.567Z,17.55
2018-05-16T23:52:44.093Z,17.46
2018-05-16T23:55:11.623Z,17.51
2018-05-16T23:57:39.146Z,17.51
